createdAt,value
2022-11-28T00:02:16.223Z,16.77
2022-11-28T00:04:43.294Z,17.05
2022-11-28T00:07:10.825Z,16.48
2022-11-28T00:09:37.553Z,16.77
2022-11-28T00:12:04.209Z,18.73
2022-11-28T00:14:30.826Z,18.83
2022-11-28T00:16:57.473Z,17.90
2022-11-28T00:19:24.103Z,18.05
2022-11-28T00:21:50.920Z,16.63
2022-11-28T00:24:17.519Z,17.25
2022-11-28T00:26:44.265Z,18.98
2022-11-28T00:29:11.234Z,18.33
2022-11-28T00:31:42.742Z,16.73
2022-11-28T00:34:13.385Z,17.65
2022-11-28T00:36:40.072Z,18.67
2022-11-28T00:39:07.028Z,18.35
2022-11-28T00:41:35.325Z,17.75
2022-11-28T00:44:02.018Z,17.83
2022-11-28T00:46:29.127Z,17.67
2022-11-28T00:48:57.126Z,17.15
2022-11-28T00:51:28.106Z,18.50
2022-11-28T00:53:55.342Z,17.75
2022-11-28T00:56:23.896Z,17.27
2022-11-28T00:58:50.622Z,16.85
2022-11-28T01:01:18.973Z,17.02
2022-11-28T01:03:46.279Z,16.63
2022-11-28T01:06:13.546Z,17.27
2022-11-28T01:08:40.239Z,17.38
2022-11-28T01:11:13.172Z,17.25
2022-11-28T01:13:40.321Z,17.33
2022-11-28T01:16:07.583Z,17.02
2022-11-28T01:18:34.347Z,17.85
2022-11-28T01:21:01.050Z,18.30
2022-11-28T01:23:27.836Z,17.25
2022-11-28T01:25:54.448Z,17.17
2022-11-28T01:28:21.945Z,16.65
2022-11-28T01:30:48.579Z,17.00
2022-11-28T01:33:15.251Z,17.02
2022-11-28T01:35:41.937Z,16.77
2022-11-28T01:38:08.539Z,16.20
2022-11-28T01:40:35.140Z,17.23
2022-11-28T01:43:01.772Z,16.13
2022-11-28T01:45:29.898Z,16.40
2022-11-28T01:47:58.788Z,17.15
2022-11-28T01:50:26.573Z,16.35
2022-11-28T01:52:55.859Z,17.95
2022-11-28T01:55:24.632Z,17.13
2022-11-28T01:57:52.708Z,17.08
2022-11-28T02:00:20.277Z,16.30
2022-11-28T02:02:52.539Z,17.45
2022-11-28T02:05:21.019Z,17.48
2022-11-28T02:07:48.193Z,17.40
2022-11-28T02:10:23.631Z,17.15
2022-11-28T02:13:08.772Z,15.77
2022-11-28T02:15:54.607Z,17.00
2022-11-28T02:18:39.568Z,16.33
2022-11-28T02:21:18.352Z,15.02
2022-11-28T02:23:47.971Z,16.73
2022-11-28T02:26:33.267Z,16.77
2022-11-28T02:29:02.647Z,15.70
2022-11-28T02:31:40.085Z,15.32
2022-11-28T02:34:17.514Z,15.95
2022-11-28T02:36:50.814Z,16.98
2022-11-28T02:39:23.307Z,15.32
2022-11-28T02:42:02.686Z,15.98
2022-11-28T02:44:33.587Z,15.73
2022-11-28T02:47:04.341Z,17.40
2022-11-28T02:49:57.211Z,16.27
2022-11-28T02:52:26.606Z,16.13
2022-11-28T02:54:54.671Z,15.55
2022-11-28T02:57:21.546Z,15.82
2022-11-28T02:59:50.139Z,16.95
2022-11-28T03:02:23.932Z,16.38
2022-11-28T03:04:50.797Z,15.90
2022-11-28T03:07:29.183Z,16.95
2022-11-28T03:10:22.114Z,15.90
2022-11-28T03:12:57.435Z,16.67
2022-11-28T03:15:27.745Z,16.42
2022-11-28T03:18:11.377Z,16.27
2022-11-28T03:20:50.913Z,15.80
2022-11-28T03:23:20.749Z,15.93
2022-11-28T03:26:05.737Z,14.73
2022-11-28T03:28:32.437Z,16.23
2022-11-28T03:31:02.008Z,14.73
2022-11-28T03:33:31.170Z,14.57
2022-11-28T03:36:04.338Z,13.93
2022-11-28T03:38:36.328Z,13.95
2022-11-28T03:41:07.080Z,13.60
2022-11-28T03:43:35.928Z,12.55
2022-11-28T03:46:06.084Z,12.85
2022-11-28T03:48:39.239Z,12.00
2022-11-28T03:51:09.505Z,13.15
2022-11-28T03:53:38.705Z,12.43
2022-11-28T03:56:10.192Z,11.63
2022-11-28T03:58:40.149Z,12.57
2022-11-28T04:01:25.220Z,12.35
2022-11-28T04:04:06.859Z,13.05
2022-11-28T04:06:44.166Z,12.30
2022-11-28T04:09:14.645Z,12.50
2022-11-28T04:11:47.297Z,12.65
2022-11-28T04:14:16.940Z,12.77
2022-11-28T04:16:58.531Z,12.75
2022-11-28T04:19:38.361Z,12.60
2022-11-28T04:22:07.323Z,13.02
2022-11-28T04:24:36.587Z,13.50
2022-11-28T04:27:08.495Z,12.40
2022-11-28T04:29:41.994Z,13.23
2022-11-28T04:32:09.184Z,13.13
2022-11-28T04:34:36.323Z,13.32
2022-11-28T04:37:09.640Z,12.60
2022-11-28T04:39:37.652Z,12.55
2022-11-28T04:42:08.110Z,12.52
2022-11-28T04:44:37.785Z,12.70
2022-11-28T04:47:04.732Z,12.32
2022-11-28T04:49:31.583Z,12.80
2022-11-28T04:52:24.640Z,11.38
2022-11-28T04:55:00.559Z,11.75
2022-11-28T04:57:30.024Z,11.88
2022-11-28T04:59:57.497Z,11.98
2022-11-28T05:02:25.098Z,11.90
2022-11-28T05:04:55.605Z,11.93
2022-11-28T05:07:24.234Z,10.95
2022-11-28T05:09:51.588Z,11.82
2022-11-28T05:12:18.236Z,11.00
2022-11-28T05:14:44.900Z,11.90
2022-11-28T05:17:12.591Z,11.90
2022-11-28T05:19:39.243Z,13.25
2022-11-28T05:22:05.926Z,13.05
2022-11-28T05:24:32.645Z,13.18
2022-11-28T05:26:59.296Z,14.80
2022-11-28T05:29:25.994Z,13.27
2022-11-28T05:31:52.737Z,14.38
2022-11-28T05:34:19.494Z,14.60
2022-11-28T05:36:46.075Z,15.20
2022-11-28T05:39:12.675Z,14.25
2022-11-28T05:41:39.303Z,14.93
2022-11-28T05:44:05.978Z,14.80
2022-11-28T05:46:32.682Z,14.27
2022-11-28T05:48:59.313Z,15.20
2022-11-28T05:51:25.951Z,15.63
2022-11-28T05:53:52.662Z,15.45
2022-11-28T05:56:20.474Z,14.73
2022-11-28T05:58:47.097Z,14.50
2022-11-28T06:01:15.650Z,14.18
2022-11-28T06:03:42.915Z,14.18
2022-11-28T06:06:28.555Z,14.52
2022-11-28T06:08:55.207Z,13.20
2022-11-28T06:11:22.923Z,13.85
2022-11-28T06:13:50.259Z,13.52
2022-11-28T06:16:18.294Z,14.00
2022-11-28T06:18:45.041Z,14.95
2022-11-28T06:21:13.905Z,14.60
2022-11-28T06:23:41.142Z,14.98
2022-11-28T06:26:12.240Z,13.50
2022-11-28T06:28:38.982Z,14.82
2022-11-28T06:31:09.392Z,14.30
2022-11-28T06:33:36.132Z,15.05
2022-11-28T06:36:04.109Z,14.38
2022-11-28T06:38:31.134Z,15.15
2022-11-28T06:40:58.892Z,14.25
2022-11-28T06:43:25.688Z,14.05
2022-11-28T06:45:52.381Z,14.07
2022-11-28T06:48:19.620Z,14.95
2022-11-28T06:50:46.301Z,13.80
2022-11-28T06:53:13.171Z,14.30
2022-11-28T06:55:39.887Z,13.38
2022-11-28T06:58:06.816Z,13.52
2022-11-28T07:00:33.726Z,13.38
2022-11-28T07:03:00.396Z,13.20
2022-11-28T07:05:31.171Z,13.63
2022-11-28T07:07:58.259Z,13.68
2022-11-28T07:10:25.399Z,12.65
2022-11-28T07:13:03.755Z,13.40
2022-11-28T07:15:32.002Z,13.50
2022-11-28T07:17:58.601Z,14.32
2022-11-28T07:20:25.221Z,13.88
2022-11-28T07:22:51.869Z,14.20
2022-11-28T07:25:18.628Z,14.02
2022-11-28T07:27:45.373Z,14.60
2022-11-28T07:30:12.222Z,14.02
2022-11-28T07:32:39.455Z,14.07
2022-11-28T07:35:08.155Z,15.02
2022-11-28T07:37:35.109Z,15.82
2022-11-28T07:40:01.904Z,16.23
2022-11-28T07:42:28.506Z,14.40
2022-11-28T07:45:03.528Z,14.63
2022-11-28T07:47:30.213Z,15.25
2022-11-28T07:49:56.927Z,15.10
2022-11-28T07:52:23.605Z,16.27
2022-11-28T07:54:50.425Z,17.10
2022-11-28T07:57:17.703Z,17.23
2022-11-28T07:59:45.139Z,18.65
2022-11-28T08:02:12.037Z,18.08
2022-11-28T08:04:41.338Z,17.25
2022-11-28T08:07:12.988Z,16.17
2022-11-28T08:09:39.733Z,15.52
2022-11-28T08:14:32.985Z,15.82
2022-11-28T08:16:59.762Z,15.07
2022-11-28T08:19:30.591Z,15.43
2022-11-28T08:21:58.853Z,15.82
2022-11-28T08:24:25.457Z,15.82
2022-11-28T08:26:52.084Z,16.95
2022-11-28T08:29:18.785Z,16.73
2022-11-28T08:31:45.977Z,15.70
2022-11-28T08:34:12.847Z,16.17
2022-11-28T08:36:39.864Z,16.17
2022-11-28T08:39:23.575Z,15.57
2022-11-28T08:41:51.044Z,19.23
2022-11-28T08:44:17.708Z,16.13
2022-11-28T08:46:44.315Z,17.60
2022-11-28T08:49:11.066Z,17.75
2022-11-28T08:51:37.802Z,16.80
2022-11-28T08:54:04.517Z,18.20
2022-11-28T08:56:31.273Z,16.90
2022-11-28T08:58:57.904Z,16.90
2022-11-28T09:01:25.948Z,17.83
2022-11-28T09:03:53.494Z,17.40
2022-11-28T09:06:21.059Z,15.70
2022-11-28T09:08:48.446Z,16.95
2022-11-28T09:11:18.001Z,16.73
2022-11-28T09:13:45.145Z,16.67
2022-11-28T09:16:12.030Z,17.10
2022-11-28T09:18:38.806Z,16.15
2022-11-28T09:21:09.883Z,16.95
2022-11-28T09:23:36.981Z,17.65
2022-11-28T09:26:10.953Z,18.40
2022-11-28T09:28:37.715Z,18.48
2022-11-28T09:31:05.236Z,17.42
2022-11-28T09:33:32.178Z,17.10
2022-11-28T09:35:58.850Z,17.83
2022-11-28T09:38:25.671Z,18.50
2022-11-28T09:40:52.734Z,17.17
2022-11-28T09:43:39.547Z,17.98
2022-11-28T09:46:07.760Z,19.00
2022-11-28T09:48:39.905Z,17.23
2022-11-28T09:51:22.932Z,18.70
2022-11-28T09:54:08.346Z,17.23
2022-11-28T09:56:35.442Z,18.15
2022-11-28T09:59:05.165Z,18.08
2022-11-28T10:01:50.501Z,17.05
2022-11-28T10:04:35.825Z,16.83
2022-11-28T10:07:11.652Z,17.45
2022-11-28T10:10:00.817Z,17.35
2022-11-28T10:12:27.658Z,16.05
2022-11-28T10:14:54.285Z,16.02
2022-11-28T10:17:23.651Z,16.58
2022-11-28T10:19:54.568Z,17.27
2022-11-28T10:22:31.110Z,16.65
2022-11-28T10:25:00.557Z,16.50
2022-11-28T10:27:32.234Z,15.65
2022-11-28T10:30:01.791Z,16.42
2022-11-28T10:32:39.839Z,16.23
2022-11-28T10:35:26.738Z,16.73
2022-11-28T10:37:54.948Z,15.70
2022-11-28T10:40:24.522Z,15.05
2022-11-28T10:42:55.853Z,14.18
2022-11-28T10:45:41.549Z,15.40
2022-11-28T10:48:38.623Z,14.15
2022-11-28T10:51:03.663Z,14.82
2022-11-28T10:53:33.159Z,14.77
2022-11-28T10:56:04.377Z,14.20
2022-11-28T10:58:36.818Z,14.18
2022-11-28T11:01:04.463Z,13.77
2022-11-28T11:03:32.738Z,14.07
2022-11-28T11:06:02.347Z,15.32
2022-11-28T11:08:30.221Z,15.07
2022-11-28T11:10:59.980Z,14.50
2022-11-28T11:13:28.183Z,14.23
2022-11-28T11:16:08.743Z,13.60
2022-11-28T11:18:37.369Z,14.48
2022-11-28T11:21:08.999Z,13.63
2022-11-28T11:23:38.469Z,14.07
2022-11-28T11:26:06.026Z,13.32
2022-11-28T11:28:46.416Z,13.27
2022-11-28T11:31:21.954Z,13.07
2022-11-28T11:33:53.469Z,13.30
2022-11-28T11:36:28.171Z,12.93
2022-11-28T11:39:17.926Z,13.38
2022-11-28T11:41:45.794Z,13.50
2022-11-28T11:44:15.604Z,12.85
2022-11-28T11:46:51.502Z,13.60
2022-11-28T11:49:37.150Z,12.27
2022-11-28T11:52:03.949Z,12.18
2022-11-28T11:54:30.962Z,12.48
2022-11-28T11:57:24.979Z,13.30
2022-11-28T11:59:53.702Z,13.27
2022-11-28T12:02:27.873Z,12.82
2022-11-28T12:05:05.511Z,13.30
2022-11-28T12:07:51.157Z,13.52
2022-11-28T12:10:19.896Z,12.43
2022-11-28T12:12:46.560Z,13.18
2022-11-28T12:15:28.488Z,13.40
2022-11-28T12:21:00.244Z,13.00
2022-11-28T12:23:32.702Z,12.73
2022-11-28T12:25:59.454Z,12.25
2022-11-28T12:28:38.452Z,12.73
2022-11-28T12:31:11.395Z,12.48
2022-11-28T12:33:44.135Z,12.32
2022-11-28T12:36:18.066Z,11.82
2022-11-28T12:38:44.794Z,12.80
2022-11-28T12:41:32.657Z,13.20
2022-11-28T12:44:05.224Z,14.20
2022-11-28T12:46:38.137Z,13.27
2022-11-28T12:49:24.875Z,12.43
2022-11-28T12:52:17.697Z,12.38
2022-11-28T12:55:03.150Z,12.30
2022-11-28T12:57:38.918Z,11.95
2022-11-28T13:00:09.770Z,12.88
2022-11-28T13:02:39.699Z,13.48
2022-11-28T13:05:20.429Z,13.95
2022-11-28T13:08:01.920Z,13.65
2022-11-28T13:10:28.604Z,13.02
2022-11-28T13:12:58.013Z,14.25
2022-11-28T13:15:24.595Z,13.00
2022-11-28T13:17:55.730Z,13.32
2022-11-28T13:20:28.519Z,12.98
2022-11-28T13:23:16.484Z,12.85
2022-11-28T13:25:55.148Z,13.45
2022-11-28T13:28:33.504Z,13.80
2022-11-28T13:31:04.468Z,13.50
2022-11-28T13:33:49.613Z,13.68
2022-11-28T13:39:40.657Z,13.10
2022-11-28T13:42:52.751Z,12.73
2022-11-28T13:45:30.223Z,12.35
2022-11-28T13:48:00.307Z,13.10
2022-11-28T13:50:33.345Z,12.68
2022-11-28T13:53:12.592Z,12.00
2022-11-28T13:55:39.523Z,12.43
2022-11-28T13:58:24.876Z,12.80
2022-11-28T14:01:00.772Z,12.43
2022-11-28T14:03:27.533Z,13.02
2022-11-28T14:05:57.283Z,12.35
2022-11-28T14:08:35.707Z,12.20
2022-11-28T14:11:05.604Z,11.95
2022-11-28T14:13:32.673Z,12.13
2022-11-28T14:16:19.559Z,11.82
2022-11-28T14:19:15.610Z,11.90
2022-11-28T14:21:49.029Z,12.50
2022-11-28T14:24:21.467Z,12.70
2022-11-28T14:26:56.410Z,12.35
2022-11-28T14:29:25.075Z,12.13
2022-11-28T14:32:27.950Z,12.73
2022-11-28T14:34:47.450Z,12.40
2022-11-28T14:37:35.209Z,12.35
2022-11-28T14:40:03.656Z,12.82
2022-11-28T14:45:43.419Z,12.32
2022-11-28T14:48:23.210Z,12.20
2022-11-28T14:51:00.579Z,13.38
2022-11-28T14:53:36.104Z,12.95
2022-11-28T14:56:22.741Z,13.05
2022-11-28T14:58:50.347Z,11.85
2022-11-28T15:01:24.689Z,12.57
2022-11-28T15:04:18.491Z,12.95
2022-11-28T15:06:50.228Z,12.13
2022-11-28T15:09:17.388Z,12.13
2022-11-28T15:12:02.725Z,11.70
2022-11-28T15:14:31.601Z,13.30
2022-11-28T15:17:01.745Z,12.10
2022-11-28T15:19:30.923Z,12.20
2022-11-28T15:21:57.697Z,11.32
2022-11-28T15:24:27.513Z,12.27
2022-11-28T15:26:57.668Z,12.23
2022-11-28T15:29:26.127Z,11.65
2022-11-28T15:31:55.567Z,12.57
2022-11-28T15:34:27.522Z,12.23
2022-11-28T15:36:56.145Z,11.90
2022-11-28T15:39:28.221Z,11.35
2022-11-28T15:41:56.126Z,12.02
2022-11-28T15:44:23.362Z,11.52
2022-11-28T15:46:50.312Z,11.70
2022-11-28T15:49:24.245Z,11.82
2022-11-28T15:51:54.881Z,12.02
2022-11-28T15:54:32.509Z,11.82
2022-11-28T15:56:59.752Z,12.65
2022-11-28T15:59:27.347Z,11.63
2022-11-28T16:01:59.496Z,12.50
2022-11-28T16:04:26.594Z,11.68
2022-11-28T16:06:56.705Z,11.55
2022-11-28T16:09:35.007Z,12.38
2022-11-28T16:12:03.228Z,12.40
2022-11-28T16:14:31.285Z,12.65
2022-11-28T16:16:58.959Z,10.48
2022-11-28T16:19:27.612Z,12.13
2022-11-28T16:21:56.164Z,12.07
2022-11-28T16:24:25.808Z,12.25
2022-11-28T16:26:57.149Z,11.65
2022-11-28T16:29:31.799Z,12.00
2022-11-28T16:32:21.699Z,12.52
2022-11-28T16:34:49.896Z,12.57
2022-11-28T16:37:26.963Z,12.02
2022-11-28T16:40:12.497Z,12.35
2022-11-28T16:42:39.289Z,12.13
2022-11-28T16:45:07.279Z,10.98
2022-11-28T16:47:34.117Z,12.02
2022-11-28T16:50:15.437Z,11.93
2022-11-28T16:52:45.752Z,12.43
2022-11-28T16:55:35.743Z,11.40
2022-11-28T16:58:07.364Z,12.15
2022-11-28T17:00:34.597Z,11.82
2022-11-28T17:03:01.216Z,11.57
2022-11-28T17:05:27.861Z,12.35
2022-11-28T17:07:54.667Z,13.32
2022-11-28T17:10:21.543Z,14.02
2022-11-28T17:12:48.205Z,14.65
2022-11-28T17:15:17.132Z,12.73
2022-11-28T17:17:43.922Z,12.90
2022-11-28T17:20:12.291Z,15.02
2022-11-28T17:22:41.414Z,13.80
2022-11-28T17:25:13.549Z,13.13
2022-11-28T17:27:40.429Z,13.20
2022-11-28T17:30:07.565Z,12.90
2022-11-28T17:32:34.200Z,12.40
2022-11-28T17:35:03.955Z,10.88
2022-11-28T17:37:30.631Z,10.65
2022-11-28T17:40:16.103Z,11.52
2022-11-28T17:42:42.672Z,10.15
2022-11-28T17:45:13.119Z,10.73
2022-11-28T17:47:40.004Z,11.02
2022-11-28T17:50:07.246Z,11.45
2022-11-28T17:52:33.964Z,11.20
2022-11-28T17:55:06.786Z,11.52
2022-11-28T17:57:34.593Z,11.60
2022-11-28T18:00:01.370Z,12.07
2022-11-28T18:02:28.138Z,13.23
2022-11-28T18:04:54.866Z,12.60
2022-11-28T18:07:22.546Z,12.50
2022-11-28T18:09:49.223Z,12.82
2022-11-28T18:12:16.010Z,14.25
2022-11-28T18:14:42.617Z,13.90
2022-11-28T18:17:09.373Z,13.25
2022-11-28T18:19:36.361Z,12.25
2022-11-28T18:22:03.005Z,11.68
2022-11-28T18:24:32.840Z,12.38
2022-11-28T18:26:59.514Z,12.13
2022-11-28T18:29:26.146Z,11.73
2022-11-28T18:31:53.304Z,12.02
2022-11-28T18:34:20.318Z,12.50
2022-11-28T18:36:48.671Z,14.45
2022-11-28T18:39:15.745Z,14.95
2022-11-28T18:41:43.937Z,14.20
2022-11-28T18:44:10.824Z,13.27
2022-11-28T18:46:38.625Z,13.65
2022-11-28T18:49:05.431Z,13.88
2022-11-28T18:51:33.908Z,14.25
2022-11-28T18:54:02.591Z,13.48
2022-11-28T18:56:30.340Z,14.18
2022-11-28T18:58:57.703Z,14.32
2022-11-28T19:01:28.622Z,13.38
2022-11-28T19:03:56.818Z,16.38
2022-11-28T19:06:23.797Z,14.80
2022-11-28T19:08:55.175Z,14.13
2022-11-28T19:11:22.572Z,15.38
2022-11-28T19:13:51.592Z,14.00
2022-11-28T19:16:19.704Z,14.55
2022-11-28T19:18:46.447Z,15.57
2022-11-28T19:21:14.260Z,15.98
2022-11-28T19:23:41.423Z,14.85
2022-11-28T19:26:09.572Z,15.13
2022-11-28T19:28:36.504Z,15.05
2022-11-28T19:31:12.527Z,14.23
2022-11-28T19:33:39.254Z,14.35
2022-11-28T19:36:06.957Z,15.57
2022-11-28T19:38:34.069Z,15.88
2022-11-28T19:41:11.254Z,15.85
2022-11-28T19:43:38.097Z,16.73
2022-11-28T19:46:05.341Z,13.45
2022-11-28T19:48:34.509Z,15.02
2022-11-28T19:51:02.082Z,14.98
2022-11-28T19:53:29.190Z,14.57
2022-11-28T19:55:56.412Z,14.25
2022-11-28T19:58:23.290Z,13.60
2022-11-28T20:00:50.579Z,13.35
2022-11-28T20:03:17.303Z,14.02
2022-11-28T20:05:44.250Z,12.05
2022-11-28T20:08:11.088Z,14.25
2022-11-28T20:10:38.620Z,12.38
2022-11-28T20:13:06.427Z,13.20
2022-11-28T20:15:36.943Z,15.25
2022-11-28T20:18:04.373Z,13.52
2022-11-28T20:20:33.073Z,13.50
2022-11-28T20:23:00.397Z,13.90
2022-11-28T20:25:27.675Z,13.45
2022-11-28T20:27:54.498Z,13.80
2022-11-28T20:30:21.769Z,14.98
2022-11-28T20:32:49.680Z,13.07
2022-11-28T20:35:17.905Z,13.23
2022-11-28T20:37:44.613Z,12.88
2022-11-28T20:40:11.457Z,13.23
2022-11-28T20:42:40.011Z,11.13
2022-11-28T20:45:07.301Z,11.80
2022-11-28T20:47:34.664Z,11.50
2022-11-28T20:50:01.453Z,11.77
2022-11-28T20:52:28.089Z,10.52
2022-11-28T20:54:54.704Z,9.18
2022-11-28T20:57:22.431Z,8.68
2022-11-28T20:59:49.481Z,7.28
2022-11-28T21:02:16.291Z,7.47
2022-11-28T21:04:42.977Z,7.68
2022-11-28T21:07:09.632Z,6.47
2022-11-28T21:09:36.307Z,6.40
2022-11-28T21:12:02.953Z,6.38
2022-11-28T21:14:29.701Z,5.80
2022-11-28T21:16:56.741Z,5.43
2022-11-28T21:19:23.620Z,5.82
2022-11-28T21:21:50.303Z,5.82
2022-11-28T21:24:16.991Z,5.63
2022-11-28T21:26:48.076Z,6.43
2022-11-28T21:29:16.580Z,6.03
2022-11-28T21:31:44.371Z,6.65
2022-11-28T21:34:14.407Z,6.32
2022-11-28T21:36:41.857Z,7.13
2022-11-28T21:39:11.999Z,6.75
2022-11-28T21:41:38.642Z,6.50
2022-11-28T21:44:05.391Z,6.45
2022-11-28T21:46:32.850Z,6.53
2022-11-28T21:48:59.763Z,6.70
2022-11-28T21:51:28.513Z,6.43
2022-11-28T21:53:59.280Z,6.60
2022-11-28T21:56:26.250Z,6.70
2022-11-28T21:58:53.466Z,5.70
2022-11-28T22:01:21.365Z,6.47
2022-11-28T22:03:48.832Z,5.50
2022-11-28T22:06:17.692Z,5.38
2022-11-28T22:08:44.865Z,6.32
2022-11-28T22:11:13.314Z,5.53
2022-11-28T22:13:42.090Z,5.88
2022-11-28T22:16:20.004Z,5.95
2022-11-28T22:18:49.067Z,6.30
2022-11-28T22:24:03.271Z,6.25
2022-11-28T22:26:29.976Z,5.90
2022-11-28T22:28:58.758Z,5.40
2022-11-28T22:31:25.572Z,5.55
2022-11-28T22:33:52.430Z,5.05
2022-11-28T22:36:21.076Z,4.90
2022-11-28T22:38:48.440Z,4.90
2022-11-28T22:41:21.932Z,4.40
2022-11-28T22:43:54.555Z,4.57
2022-11-28T22:46:21.352Z,4.28
2022-11-28T22:48:48.179Z,4.68
2022-11-28T22:51:16.277Z,4.63
2022-11-28T22:53:43.158Z,4.70
2022-11-28T22:56:11.069Z,5.10
2022-11-28T22:58:42.516Z,5.32
2022-11-28T23:01:14.530Z,4.53
2022-11-28T23:03:42.296Z,4.78
2022-11-28T23:06:11.140Z,4.97
2022-11-28T23:08:38.930Z,5.13
2022-11-28T23:11:06.993Z,4.82
2022-11-28T23:13:37.030Z,5.13
2022-11-28T23:16:11.198Z,5.15
2022-11-28T23:18:37.877Z,5.35
2022-11-28T23:21:04.667Z,5.47
2022-11-28T23:23:32.391Z,4.85
2022-11-28T23:26:05.128Z,4.60
2022-11-28T23:28:33.149Z,4.88
2022-11-28T23:31:05.989Z,4.70
2022-11-28T23:33:32.900Z,4.70
2022-11-28T23:35:59.598Z,4.55
2022-11-28T23:38:26.395Z,3.83
2022-11-28T23:40:56.619Z,4.07
2022-11-28T23:43:23.246Z,4.00
2022-11-28T23:45:49.905Z,3.50
2022-11-28T23:48:16.649Z,3.20
2022-11-28T23:50:43.347Z,3.60
2022-11-28T23:53:10.001Z,3.72
2022-11-28T23:55:36.598Z,3.20
2022-11-28T23:58:03.229Z,3.22
